Kathy C — 2CTI7 — position and weather

sailwx.info

Track history (hours):
 
Tides and Currents Weather Stations Pressure Air Temp Water Temp Dewpoint Dewpoint Depression Visibility Wind Speed Wind Dir Waves Ship Positions

Kathy C

Last reported at 2016-Jul-21 16:32 UTC. Time now 2016-Jul-23 19:15 UTC.
Position N 38°19' W 000°25'.

Length 106 m; draft 7 m.

Type: Cargo ship. MMSI: 235075591.

Date/timePositionNaut miles runAvg speedWind from/ knotsBaromVisibWave heightAir tempDewpointWater temp
2016-Jul-21 16:32N 38°19' W 000°25'1310.2
2016-Jul-21 15:16N 38°20' W 000°09'7 9.9
2016-Jul-21 14:33N 38°20' W 000°00'2310.5
2016-Jul-21 12:24N 38°22' E 000°28'910.2
2016-Jul-21 11:33N 38°22' E 000°39'1410.1
2016-Jul-21 10:11N 38°23' E 000°57'710.7
2016-Jul-21 09:33N 38°24' E 001°06'1111.2
2016-Jul-21 08:33N 38°24' E 001°20'1110.8
2016-Jul-21 07:32N 38°25' E 001°34'1110.6
2016-Jul-21 06:30N 38°26' E 001°48'1010.4
2016-Jul-21 05:33N 38°26' E 002°01'1010.3
2016-Jul-21 04:32N 38°27' E 002°14'10 9.9
2016-Jul-21 03:33N 38°28' E 002°26'10 9.9
2016-Jul-21 02:33N 38°28' E 002°39'1210.5
2016-Jul-21 01:23N 38°30' E 002°54'910.6
2016-Jul-21 00:33N 38°30' E 003°06'1110.7
2016-Jul-20 23:33N 38°31' E 003°19'1010.4
2016-Jul-20 22:33N 38°31' E 003°33'1110.5
2016-Jul-20 21:33N 38°31' E 003°46'1310.5
2016-Jul-20 20:22N 38°32' E 004°02'810.4
2016-Jul-20 19:33N 38°33' E 004°13'1010.1
2016-Jul-20 18:33N 38°34' E 004°26'1010.0
2016-Jul-20 17:33N 38°35' E 004°38'12 9.9
2016-Jul-20 16:22N 38°36' E 004°53'17910.0
2016-Jul-19 22:26N 38°47' E 008°42'1010.7
2016-Jul-19 21:32N 38°48' E 008°54'1010.6
2016-Jul-19 20:33N 38°50' E 009°08'1010.4
2016-Jul-19 19:33N 38°52' E 009°21'1010.2
2016-Jul-19 18:32N 38°56' E 009°33'1010.4
2016-Jul-19 17:33N 39°02' E 009°44'5610.8
2016-Jul-19 12:24N 39°35' E 010°42'3210.4
2016-Jul-19 09:18N 39°53' E 011°16'7310.8
2016-Jul-19 02:33N 40°36' E 012°34'1110.8
2016-Jul-19 01:33N 40°42' E 012°45'1110.7
2016-Jul-19 00:33N 40°49' E 012°56'1110.6
2016-Jul-18 23:33N 40°55' E 013°08'1110.5
2016-Jul-18 22:33N 41°02' E 013°18'1010.5
2016-Jul-18 21:33N 41°09' E 013°28'7 6.7
2016-Jul-18 20:33N 41°14' E 013°34'0 0.2
2016-Jul-18 19:33N 41°14' E 013°34'0 0.0
2016-Jul-18 18:33N 41°14' E 013°34'0 0.0
2016-Jul-18 17:30N 41°14' E 013°34'0 0.0
2016-Jul-18 16:33N 41°14' E 013°34'0 0.0
2016-Jul-18 15:30N 41°14' E 013°34'0 0.0
2016-Jul-18 14:30N 41°14' E 013°34'0 0.0
2016-Jul-18 13:30N 41°14' E 013°34'0 0.0
2016-Jul-18 12:18N 41°14' E 013°34'0 0.0
2016-Jul-18 11:30N 41°14' E 013°34'0 0.0
2016-Jul-18 10:30N 41°14' E 013°34'  
2016-Jul-15 01:30N 40°54' E 013°42'8 8.2
2016-Jul-15 00:33N 40°46' E 013°43'7 7.2
2016-Jul-14 23:33N 40°40' E 013°47'7 7.3
2016-Jul-14 22:33N 40°36' E 013°55'7 7.0
2016-Jul-14 21:33N 40°32' E 014°03'7 6.7
2016-Jul-14 20:33N 40°29' E 014°11'6 5.6
2016-Jul-14 19:33N 40°29' E 014°18'7 6.9
2016-Jul-14 18:30N 40°31' E 014°27'16 0.3
2016-Jul-12 17:14N 40°39' E 014°46'23 8.4
2016-Jul-12 14:32N 40°30' E 014°18'1111.1
2016-Jul-12 13:33N 40°31' E 014°04'1111.4
2016-Jul-12 12:34N 40°34' E 013°49'1111.3
2016-Jul-12 11:33N 40°38' E 013°35'1111.2
2016-Jul-12 10:33N 40°42' E 013°21'1111.1
2016-Jul-12 09:33N 40°46' E 013°07'1111.0
2016-Jul-12 08:33N 40°49' E 012°54'1110.8
2016-Jul-12 07:32N 40°54' E 012°41'1010.4
2016-Jul-12 06:34N 41°01' E 012°31'1210.4
2016-Jul-12 05:27N 41°11' E 012°22'910.4
2016-Jul-12 04:33N 41°18' E 012°14'1010.4
2016-Jul-12 03:33N 41°26' E 012°06'6910.8
2016-Jul-11 21:11N 42°20' E 011°09'711.0
2016-Jul-11 20:33N 42°24' E 011°01'1111.1
2016-Jul-11 19:33N 42°32' E 010°50'1111.0
2016-Jul-11 18:33N 42°41' E 010°42'1110.9
2016-Jul-11 17:32N 42°51' E 010°36'  
Track history (hours):
 
Tides and Currents Weather Stations Pressure Air Temp Water Temp Dewpoint Dewpoint Depression Visibility Wind Speed Wind Dir Waves Ship Positions

Kathy C

Last reported at 2016-Jul-21 16:32 UTC. Time now 2016-Jul-23 19:15 UTC.
Position N 38°19' W 000°25'.

Length 106 m; draft 7 m.

Type: Cargo ship. MMSI: 235075591.

Date/timePositionNaut miles runAvg speedWind from/ knotsBaromVisibWave heightAir tempDewpointWater temp
2016-Jul-21 16:32N 38°19' W 000°25'1310.2
2016-Jul-21 15:16N 38°20' W 000°09'7 9.9
2016-Jul-21 14:33N 38°20' W 000°00'2310.5
2016-Jul-21 12:24N 38°22' E 000°28'910.2
2016-Jul-21 11:33N 38°22' E 000°39'1410.1
2016-Jul-21 10:11N 38°23' E 000°57'710.7
2016-Jul-21 09:33N 38°24' E 001°06'1111.2
2016-Jul-21 08:33N 38°24' E 001°20'1110.8
2016-Jul-21 07:32N 38°25' E 001°34'1110.6
2016-Jul-21 06:30N 38°26' E 001°48'1010.4
2016-Jul-21 05:33N 38°26' E 002°01'1010.3
2016-Jul-21 04:32N 38°27' E 002°14'10 9.9
2016-Jul-21 03:33N 38°28' E 002°26'10 9.9
2016-Jul-21 02:33N 38°28' E 002°39'1210.5
2016-Jul-21 01:23N 38°30' E 002°54'910.6
2016-Jul-21 00:33N 38°30' E 003°06'1110.7
2016-Jul-20 23:33N 38°31' E 003°19'1010.4
2016-Jul-20 22:33N 38°31' E 003°33'1110.5
2016-Jul-20 21:33N 38°31' E 003°46'1310.5
2016-Jul-20 20:22N 38°32' E 004°02'810.4
2016-Jul-20 19:33N 38°33' E 004°13'1010.1
2016-Jul-20 18:33N 38°34' E 004°26'1010.0
2016-Jul-20 17:33N 38°35' E 004°38'12 9.9
2016-Jul-20 16:22N 38°36' E 004°53'17910.0
2016-Jul-19 22:26N 38°47' E 008°42'1010.7
2016-Jul-19 21:32N 38°48' E 008°54'1010.6
2016-Jul-19 20:33N 38°50' E 009°08'1010.4
2016-Jul-19 19:33N 38°52' E 009°21'1010.2
2016-Jul-19 18:32N 38°56' E 009°33'1010.4
2016-Jul-19 17:33N 39°02' E 009°44'5610.8
2016-Jul-19 12:24N 39°35' E 010°42'3210.4
2016-Jul-19 09:18N 39°53' E 011°16'7310.8
2016-Jul-19 02:33N 40°36' E 012°34'1110.8
2016-Jul-19 01:33N 40°42' E 012°45'1110.7
2016-Jul-19 00:33N 40°49' E 012°56'1110.6
2016-Jul-18 23:33N 40°55' E 013°08'1110.5
2016-Jul-18 22:33N 41°02' E 013°18'1010.5
2016-Jul-18 21:33N 41°09' E 013°28'7 6.7
2016-Jul-18 20:33N 41°14' E 013°34'0 0.2
2016-Jul-18 19:33N 41°14' E 013°34'0 0.0
2016-Jul-18 18:33N 41°14' E 013°34'0 0.0
2016-Jul-18 17:30N 41°14' E 013°34'0 0.0
2016-Jul-18 16:33N 41°14' E 013°34'0 0.0
2016-Jul-18 15:30N 41°14' E 013°34'0 0.0
2016-Jul-18 14:30N 41°14' E 013°34'0 0.0
2016-Jul-18 13:30N 41°14' E 013°34'0 0.0
2016-Jul-18 12:18N 41°14' E 013°34'0 0.0
2016-Jul-18 11:30N 41°14' E 013°34'0 0.0
2016-Jul-18 10:30N 41°14' E 013°34'  
2016-Jul-15 01:30N 40°54' E 013°42'8 8.2
2016-Jul-15 00:33N 40°46' E 013°43'7 7.2
2016-Jul-14 23:33N 40°40' E 013°47'7 7.3
2016-Jul-14 22:33N 40°36' E 013°55'7 7.0
2016-Jul-14 21:33N 40°32' E 014°03'7 6.7
2016-Jul-14 20:33N 40°29' E 014°11'6 5.6
2016-Jul-14 19:33N 40°29' E 014°18'7 6.9
2016-Jul-14 18:30N 40°31' E 014°27'16 0.3
2016-Jul-12 17:14N 40°39' E 014°46'23 8.4
2016-Jul-12 14:32N 40°30' E 014°18'1111.1
2016-Jul-12 13:33N 40°31' E 014°04'1111.4
2016-Jul-12 12:34N 40°34' E 013°49'1111.3
2016-Jul-12 11:33N 40°38' E 013°35'1111.2
2016-Jul-12 10:33N 40°42' E 013°21'1111.1
2016-Jul-12 09:33N 40°46' E 013°07'1111.0
2016-Jul-12 08:33N 40°49' E 012°54'1110.8
2016-Jul-12 07:32N 40°54' E 012°41'1010.4
2016-Jul-12 06:34N 41°01' E 012°31'1210.4
2016-Jul-12 05:27N 41°11' E 012°22'910.4
2016-Jul-12 04:33N 41°18' E 012°14'1010.4
2016-Jul-12 03:33N 41°26' E 012°06'6910.8
2016-Jul-11 21:11N 42°20' E 011°09'711.0
2016-Jul-11 20:33N 42°24' E 011°01'1111.1
2016-Jul-11 19:33N 42°32' E 010°50'1111.0
2016-Jul-11 18:33N 42°41' E 010°42'1110.9
2016-Jul-11 17:32N 42°51' E 010°36'  

Dump ship's entire track history